• Join FlightAware (Why Join?)
  • Login
  • US Flag 
05:13PM EDT


 

Airport Tracker/Info


-or-


 

Live Flight TrackerFlight Track Log ✈ N830QS ✈ 30-Jun-2013 ✈ KSUN - KTRK

Flight Track Log - Related Links

Times and Time Zones

All times are in EDT time to prevent confusion due to time zone crossing. See the N830QS flight status page for this flight to view local times or setup timezone preferences in your user account.

Time Position Orientation Groundspeed Altitude Reporting Facility
EDT Latitude Longitude Course Direction KTS MPH feet Rate Location/Type
11:38AM 43.3233 -114.2072 228° Southwest 357 411 11,600  Level Salt Lake Center
11:39AM 43.1226 -114.8793 228° Southwest  Level Estimated
11:39AM 43.2497 -114.2722 213° Southwest 302 348 14,400  Level Salt Lake Center
11:40AM 43.0588 -114.9759 228° Southwest  Level Estimated
11:40AM 43.1692 -114.3250 206° Southwest 311 358 17,300  Level Salt Lake Center
11:41AM 42.9949 -115.0723 228° Southwest  Level Estimated
11:41AM 43.1064 -114.4047 223° Southwest 315 362 19,400  Level Salt Lake Center
11:42AM 42.9309 -115.1685 228° Southwest  Level Estimated
11:42AM 43.0478 -114.5011 230° Southwest 330 380 21,700  Level Salt Lake Center
11:43AM 42.8669 -115.2645 228° Southwest  Level Estimated
11:43AM 42.9800 -114.6106 230° Southwest 339 390 23,700  Level Salt Lake Center
11:44AM 42.9169 -114.7100 229° Southwest 358 412 25,300 1,740 Climbing Salt Lake Center
11:45AM 42.8431 -114.8275 229° Southwest 365 420 27,300 1,860 Climbing Salt Lake Center
11:46AM 42.7789 -114.9289 229° Southwest 369 425 29,200 1,740 Climbing Salt Lake Center
11:47AM 42.7142 -115.0303 229° Southwest 370 426 31,000 1,920 Climbing Salt Lake Center
11:48AM 42.6403 -115.1469 229° Southwest 366 421 33,200 1,440 Climbing Salt Lake Center
11:49AM 42.5761 -115.2472 229° Southwest 368 423 34,000 360 Climbing Salt Lake Center
11:50AM 42.4969 -115.3700 229° Southwest 385 443 34,000  Level Salt Lake Center
11:51AM 42.4300 -115.4731 229° Southwest 380 437 34,000  Level Salt Lake Center
11:53AM 42.3528 -115.5939 229° Southwest 379 436 34,000  Level Salt Lake Center
11:54AM 42.2844 -115.6972 228° Southwest 384 442 34,000  Level Salt Lake Center
11:55AM 42.2056 -115.8181 229° Southwest 382 440 34,000  Level Salt Lake Center
11:56AM 42.1381 -115.9225 229° Southwest 384 442 34,000  Level Salt Lake Center
11:57AM 42.0586 -116.0433 228° Southwest 386 444 34,000  Level Salt Lake Center
11:58AM 41.9944 -116.1403 228° Southwest 384 442 34,000  Level Salt Lake Center
11:59AM 41.9150 -116.2603 228° Southwest 384 442 34,000  Level Salt Lake Center
12:00PM 41.8472 -116.3636 229° Southwest 384 442 34,000  Level Salt Lake Center
12:01PM 41.7675 -116.4831 228° Southwest 383 441 34,000  Level Salt Lake Center
12:02PM 41.7003 -116.5833 228° Southwest 380 437 34,000  Level Salt Lake Center
12:04PM 41.5514 -116.8033 228° Southwest 384 442 34,000  Level Salt Lake Center
12:05PM 41.4722 -116.9222 228° Southwest 386 444 34,000  Level Salt Lake Center
12:06PM 41.4033 -117.0244 228° Southwest 386 444 34,000  Level Salt Lake Center
12:07PM 41.3228 -117.1425 228° Southwest 387 445 34,000  Level Salt Lake Center
12:08PM 41.2550 -117.2431 228° Southwest 384 442 34,000  Level Salt Lake Center
12:09PM 41.1858 -117.3431 227° Southwest 384 442 34,000  Level Salt Lake Center
12:10PM 41.1069 -117.4586 228° Southwest 381 438 34,000  Level Salt Lake Center
12:11PM 41.0383 -117.5572 227° Southwest 381 438 34,000  Level Salt Lake Center
12:12PM 40.9586 -117.6722 227° Southwest 381 438 34,000  Level Salt Lake Center
12:13PM 40.8900 -117.7708 227° Southwest 381 438 34,000  Level Salt Lake Center
12:14PM 40.8106 -117.8858 228° Southwest 381 438 34,000  Level Salt Lake Center
12:15PM 40.7414 -117.9839 227° Southwest 381 438 34,000  Level Salt Lake Center
12:16PM 40.6589 -118.0972 226° Southwest 383 441 34,000  Level Salt Lake Center
12:17PM 40.5911 -118.1947 228° Southwest 380 437 34,000  Level Salt Lake Center
12:18PM 40.5122 -118.3078 227° Southwest 377 434 34,000  Level Salt Lake Center
12:19PM 40.4425 -118.4036 226° Southwest 378 435 34,000  Level Salt Lake Center
12:20PM 40.4006 -118.4644 228° Southwest 374 430 34,000 -720 Level Oakland Center
12:21PM 40.2936 -118.6119 226° Southwest 380 437 32,600 -1,380 Descending Salt Lake Center
12:22PM 40.2139 -118.7233 227° Southwest 373 429 30,700 -1,320 Descending Salt Lake Center
12:24PM 40.1425 -118.8208 226° Southwest 373 429 29,900 -1,200 Descending Salt Lake Center
12:24PM 40.1000 -118.8828 228° Southwest 375 432 28,800 -1,800 Descending Oakland Center
12:25PM 40.0297 -118.9789 226° Southwest 370 426 27,000 -1,800 Descending Oakland Center
12:26PM 39.9594 -119.0742 226° Southwest 367 422 25,200 -1,800 Descending Oakland Center
12:27PM 39.8922 -119.1664 226° Southwest 354 407 23,400 -1,800 Descending Oakland Center
12:28PM 39.8258 -119.2561 226° Southwest 346 398 21,600 -1,980 Descending Oakland Center
12:29PM 39.7494 -119.3611 227° Southwest 337 388 19,400 -1,860 Descending Oakland Center
12:31PM 39.6269 -119.5278 226° Southwest 314 361 16,000 -1,740 Descending Oakland Center
12:32PM 39.5664 -119.6097 226° Southwest 315 362 14,100 -1,920 Descending Oakland Center
12:33PM 39.5167 -119.6833 229° Southwest 299 344 12,400 -1,260 Descending Northern Cal TRACON
12:34PM 39.4833 -119.7667 243° Southwest 384 442 11,900 -300 Descending Northern Cal TRACON
12:35PM 39.4500 -119.8500 243° Southwest 230 265 11,900 -180 Level Northern Cal TRACON
12:36PM 39.4167 -119.9167 237° Southwest 232 267 11,600 -480 Descending Northern Cal TRACON
12:37PM 39.3667 -119.9833 226° Southwest 229 264 10,900 -360 Descending Northern Cal TRACON
12:38PM 39.3167 -120.0167 207° Southwest 227 261 10,900  Level Northern Cal TRACON
12:39PM 39.3167 -120.0167 97° East 227 261 10,900  Level Northern Cal TRACON
12:40PM 39.3167 -120.0167 97° East 227 261 10,900  Level Northern Cal TRACON
12:41PM 39.3167 -120.0167 97° East 227 261 10,900  Level Northern Cal TRACON
12:42PM 39.3167 -120.0167 97° East 227 261 10,900  Level Northern Cal TRACON
12:45PM 39.3167 -120.1333 270° West  Level FlightAware Approximate
12:52PM 39.3200 -120.1396 270° West  Level Estimated
12:53PM 39.3167 -120.1333 270° West  Level FlightAware Approximate
12:54PM 39.3200 -120.1396 270° West  Level Estimated
12:55PM 39.3167 -120.1333 270° West  Level FlightAware Approximate
12:56PM 39.3200 -120.1396 270° West  Level Estimated
12:57PM 39.3167 -120.1333 270° West  Level FlightAware Approximate
12:58PM 39.3200 -120.1396 270° West  Level Estimated